createdAt,value
2018-12-25T00:01:16.122Z,23.13
2018-12-25T00:03:45.292Z,21.60
2018-12-25T00:06:14.358Z,22.63
2018-12-25T00:08:43.415Z,28.93
2018-12-25T00:11:12.507Z,22.53
2018-12-25T00:13:41.565Z,20.67
2018-12-25T00:16:10.631Z,26.97
2018-12-25T00:18:39.723Z,26.33
2018-12-25T00:21:08.781Z,28.90
2018-12-25T00:23:37.841Z,31.30
2018-12-25T00:26:07.022Z,30.13
2018-12-25T00:28:36.082Z,29.53
2018-12-25T00:31:05.144Z,30.53
2018-12-25T00:33:34.232Z,33.30
2018-12-25T00:36:03.296Z,31.23
2018-12-25T00:38:32.354Z,27.47
2018-12-25T00:41:01.489Z,28.30
2018-12-25T00:43:30.547Z,24.63
2018-12-25T00:45:59.605Z,21.27
2018-12-25T00:48:29.148Z,22.40
2018-12-25T00:50:58.215Z,21.70
2018-12-25T00:53:27.285Z,22.77
2018-12-25T00:55:56.450Z,20.30
2018-12-25T00:58:25.511Z,20.07
2018-12-25T01:00:54.575Z,21.33
2018-12-25T01:03:23.662Z,24.50
2018-12-25T01:05:52.714Z,27.03
2018-12-25T01:08:21.772Z,28.10
2018-12-25T01:10:50.878Z,28.53
2018-12-25T01:13:19.937Z,32.93
2018-12-25T01:15:48.998Z,29.77
2018-12-25T01:18:18.082Z,26.30
2018-12-25T01:20:47.145Z,26.10
2018-12-25T01:23:16.213Z,28.90
2018-12-25T01:25:45.305Z,25.17
2018-12-25T01:28:14.375Z,24.30
2018-12-25T01:30:43.436Z,25.90
2018-12-25T01:33:12.559Z,29.77
2018-12-25T01:35:41.622Z,23.10
2018-12-25T01:38:23.263Z,22.00
2018-12-25T01:40:52.314Z,25.23
2018-12-25T01:43:21.374Z,23.57
2018-12-25T01:45:50.459Z,22.13
2018-12-25T01:48:19.528Z,20.00
2018-12-25T01:50:48.593Z,21.50
2018-12-25T01:53:17.709Z,22.47
2018-12-25T01:55:46.785Z,21.23
2018-12-25T01:58:15.847Z,22.83
2018-12-25T02:00:44.959Z,21.10
2018-12-25T02:03:14.022Z,20.57
2018-12-25T02:05:43.098Z,18.20
2018-12-25T02:08:12.189Z,17.57
2018-12-25T02:10:41.246Z,19.03
2018-12-25T02:13:10.315Z,18.23
2018-12-25T02:15:39.433Z,20.40
2018-12-25T02:18:08.502Z,21.90
2018-12-25T02:20:37.561Z,21.17
2018-12-25T02:23:06.875Z,21.10
2018-12-25T02:25:35.933Z,20.60
2018-12-25T02:28:04.997Z,25.40
2018-12-25T02:30:34.080Z,24.60
2018-12-25T02:33:03.149Z,22.50
2018-12-25T02:35:32.214Z,21.67
2018-12-25T02:38:01.546Z,17.73
2018-12-25T02:40:30.599Z,16.60
2018-12-25T02:42:59.671Z,16.07
2018-12-25T02:45:28.769Z,16.67
2018-12-25T02:47:57.827Z,19.13
2018-12-25T02:50:26.880Z,15.53
2018-12-25T02:52:55.955Z,16.47
2018-12-25T02:55:25.051Z,15.50
2018-12-25T02:57:54.100Z,14.73
2018-12-25T03:00:23.201Z,14.70
2018-12-25T03:02:52.406Z,15.77
2018-12-25T03:05:21.330Z,14.97
2018-12-25T03:07:50.418Z,16.67
2018-12-25T03:10:19.485Z,15.60
2018-12-25T03:12:48.546Z,13.63
2018-12-25T03:15:17.620Z,14.27
2018-12-25T03:17:46.682Z,16.70
2018-12-25T03:20:15.748Z,16.13
2018-12-25T03:22:44.896Z,13.90
2018-12-25T03:25:13.957Z,13.97
2018-12-25T03:27:43.015Z,16.47
2018-12-25T03:30:12.102Z,15.83
2018-12-25T03:32:41.169Z,14.70
2018-12-25T03:35:10.226Z,15.93
2018-12-25T03:37:39.310Z,14.43
2018-12-25T03:40:08.370Z,13.97
2018-12-25T03:42:37.424Z,11.50
2018-12-25T03:45:06.507Z,12.10
2018-12-25T03:47:35.574Z,10.90
2018-12-25T03:50:10.448Z,10.27
2018-12-25T03:52:33.730Z,10.40
2018-12-25T03:55:02.756Z,12.60
2018-12-25T03:57:36.232Z,12.60
2018-12-25T04:00:05.296Z,14.40
2018-12-25T04:02:34.370Z,12.97
2018-12-25T04:05:03.669Z,15.30
2018-12-25T04:07:32.754Z,13.53
2018-12-25T04:10:01.794Z,13.50
2018-12-25T04:12:30.883Z,15.37
2018-12-25T04:14:59.949Z,12.93
2018-12-25T04:17:29.062Z,11.43
2018-12-25T04:19:58.138Z,14.00
2018-12-25T04:22:27.192Z,12.83
2018-12-25T04:24:56.242Z,13.23
2018-12-25T04:27:29.120Z,13.07
2018-12-25T04:29:58.193Z,12.30
2018-12-25T04:32:27.237Z,11.60
2018-12-25T04:34:56.335Z,9.77
2018-12-25T04:37:30.226Z,10.00
2018-12-25T04:39:59.303Z,11.33
2018-12-25T04:42:28.359Z,12.40
2018-12-25T04:44:57.410Z,13.20
2018-12-25T04:47:26.841Z,14.90
2018-12-25T04:49:55.894Z,13.27
2018-12-25T04:52:24.942Z,14.90
2018-12-25T04:54:54.012Z,14.03
2018-12-25T04:57:23.075Z,13.17
2018-12-25T04:59:52.127Z,9.27
2018-12-25T05:02:21.205Z,11.43
2018-12-25T05:04:50.263Z,11.10
2018-12-25T05:07:19.319Z,9.60
2018-12-25T05:09:48.409Z,11.17
2018-12-25T05:12:17.473Z,11.37
2018-12-25T05:14:46.537Z,10.57
2018-12-25T05:17:29.079Z,15.17
2018-12-25T05:19:58.123Z,14.57
2018-12-25T05:22:27.175Z,12.23
2018-12-25T05:24:56.330Z,11.60
2018-12-25T05:27:25.382Z,10.87
2018-12-25T05:29:54.449Z,11.57
2018-12-25T05:32:23.519Z,11.70
2018-12-25T05:34:52.571Z,11.57
2018-12-25T05:37:21.619Z,11.63
2018-12-25T05:39:50.694Z,8.67
2018-12-25T05:42:19.734Z,10.47
2018-12-25T05:44:48.787Z,11.73
2018-12-25T05:47:34.697Z,16.33
2018-12-25T05:50:03.745Z,13.50
2018-12-25T05:52:32.786Z,10.90
2018-12-25T05:55:01.883Z,11.13
2018-12-25T05:57:30.928Z,11.60
2018-12-25T05:59:59.986Z,11.97
2018-12-25T06:02:29.062Z,14.40
2018-12-25T06:04:58.118Z,12.87
2018-12-25T06:07:27.167Z,13.23
2018-12-25T06:09:56.485Z,11.20
2018-12-25T06:12:25.554Z,13.50
2018-12-25T06:14:54.606Z,11.03
2018-12-25T06:17:23.675Z,14.37
2018-12-25T06:19:52.741Z,13.80
2018-12-25T06:22:21.783Z,10.50
2018-12-25T06:24:50.879Z,15.80
2018-12-25T06:27:19.934Z,14.13
2018-12-25T06:29:48.996Z,12.30
2018-12-25T06:32:18.092Z,16.03
2018-12-25T06:34:47.150Z,12.57
2018-12-25T06:37:16.204Z,11.83
2018-12-25T06:39:45.290Z,9.20
2018-12-25T06:42:14.371Z,12.03
2018-12-25T06:44:43.439Z,12.70
2018-12-25T06:47:12.515Z,11.57
2018-12-25T06:49:41.575Z,14.53
2018-12-25T06:52:10.631Z,15.60
2018-12-25T06:54:39.741Z,18.67
2018-12-25T06:57:08.790Z,15.63
2018-12-25T06:59:37.856Z,18.53
2018-12-25T07:02:06.948Z,20.57
2018-12-25T07:04:36.002Z,22.40
2018-12-25T07:07:05.082Z,31.73
2018-12-25T07:09:34.239Z,27.93
2018-12-25T07:12:03.234Z,21.60
2018-12-25T07:14:32.287Z,20.07
2018-12-25T07:17:01.387Z,16.90
2018-12-25T07:19:30.448Z,16.27
2018-12-25T07:21:59.511Z,15.67
2018-12-25T07:24:28.616Z,17.73
2018-12-25T07:26:57.679Z,16.90
2018-12-25T07:29:26.735Z,16.13
2018-12-25T07:31:55.825Z,16.87
2018-12-25T07:34:24.891Z,17.73
2018-12-25T07:37:00.689Z,16.33
2018-12-25T07:39:29.753Z,22.03
2018-12-25T07:41:58.813Z,31.23
2018-12-25T07:44:27.905Z,32.27
2018-12-25T07:46:56.955Z,55.63
2018-12-25T07:49:26.031Z,37.67
2018-12-25T07:51:55.219Z,36.07
2018-12-25T07:54:24.288Z,29.17
2018-12-25T07:56:53.338Z,32.43
2018-12-25T07:59:22.452Z,38.00
2018-12-25T08:01:51.513Z,32.10
2018-12-25T08:04:20.567Z,25.43
2018-12-25T08:06:49.655Z,29.30
2018-12-25T08:09:18.719Z,28.47
2018-12-25T08:11:47.787Z,24.97
2018-12-25T08:14:17.121Z,22.63
2018-12-25T08:16:46.179Z,23.47
2018-12-25T08:19:15.228Z,28.63
2018-12-25T08:21:44.493Z,30.43
2018-12-25T08:24:13.562Z,30.10
2018-12-25T08:26:42.611Z,27.07
2018-12-25T08:29:11.723Z,25.37
2018-12-25T08:31:41.200Z,26.00
2018-12-25T08:34:10.606Z,26.17
2018-12-25T08:36:39.687Z,25.93
2018-12-25T08:39:08.750Z,26.43
2018-12-25T08:41:37.805Z,31.73
2018-12-25T08:44:06.908Z,39.53
2018-12-25T08:46:42.493Z,33.17
2018-12-25T08:49:11.571Z,32.17
2018-12-25T08:51:40.617Z,34.90
2018-12-25T08:54:09.686Z,39.97
2018-12-25T08:56:38.782Z,34.13
2018-12-25T09:02:11.974Z,46.73
2018-12-25T09:04:41.036Z,45.73
2018-12-25T09:07:10.084Z,44.37
2018-12-25T09:09:39.251Z,48.80
2018-12-25T09:12:08.325Z,52.50
2018-12-25T09:14:37.373Z,49.47
2018-12-25T09:17:06.463Z,53.07
2018-12-25T09:19:35.524Z,47.17
2018-12-25T09:22:04.588Z,39.30
2018-12-25T09:24:33.709Z,35.40
2018-12-25T09:27:03.785Z,36.43
2018-12-25T09:29:32.851Z,36.70
2018-12-25T09:32:01.947Z,46.33
2018-12-25T09:34:31.023Z,39.43
2018-12-25T09:37:00.082Z,37.93
2018-12-25T09:39:29.183Z,35.73
2018-12-25T09:41:58.230Z,41.33
2018-12-25T09:44:27.298Z,40.07
2018-12-25T09:46:56.412Z,44.47
2018-12-25T09:49:25.470Z,46.57
2018-12-25T09:51:54.853Z,58.17
2018-12-25T09:54:23.630Z,56.37
2018-12-25T09:56:52.688Z,66.50
2018-12-25T09:59:21.751Z,67.30
2018-12-25T10:01:50.849Z,64.00
2018-12-25T10:04:20.272Z,55.57
2018-12-25T10:06:49.319Z,55.40
2018-12-25T10:09:18.722Z,48.23
2018-12-25T10:11:47.775Z,47.87
2018-12-25T10:14:16.841Z,54.37
2018-12-25T10:16:56.550Z,62.30
2018-12-25T10:19:25.613Z,69.90
2018-12-25T10:22:02.771Z,60.00
2018-12-25T10:24:23.816Z,66.70
2018-12-25T10:26:52.883Z,60.50
2018-12-25T10:29:21.935Z,54.67
2018-12-25T10:31:51.036Z,41.87
2018-12-25T10:34:20.103Z,49.27
2018-12-25T10:37:12.152Z,49.77
2018-12-25T10:39:41.221Z,46.90
2018-12-25T10:42:10.287Z,48.27
2018-12-25T10:44:39.395Z,44.53
2018-12-25T10:47:08.460Z,45.47
2018-12-25T10:49:37.527Z,42.40
2018-12-25T10:52:11.447Z,41.23
2018-12-25T10:54:35.676Z,52.30
2018-12-25T10:57:04.744Z,91.87
2018-12-25T10:59:33.830Z,73.70
2018-12-25T11:02:02.895Z,59.60
2018-12-25T11:04:31.952Z,47.00
2018-12-25T11:07:01.059Z,69.80
2018-12-25T11:09:30.116Z,95.87
2018-12-25T11:11:59.171Z,100.33
2018-12-25T11:14:28.267Z,74.57
2018-12-25T11:16:57.334Z,49.90
2018-12-25T11:19:26.413Z,54.23
2018-12-25T11:21:55.502Z,45.83
2018-12-25T11:24:24.562Z,61.40
2018-12-25T11:26:53.650Z,64.03
2018-12-25T11:29:22.748Z,59.53
2018-12-25T11:31:51.815Z,81.10
2018-12-25T11:34:20.871Z,98.20
2018-12-25T11:36:49.996Z,79.13
2018-12-25T11:39:19.059Z,83.73
2018-12-25T11:41:48.127Z,81.00
2018-12-25T11:44:17.215Z,73.40
2018-12-25T11:46:46.275Z,89.20
2018-12-25T11:49:15.336Z,84.13
2018-12-25T11:51:44.484Z,77.60
2018-12-25T11:54:13.531Z,98.53
2018-12-25T11:56:50.200Z,104.27
2018-12-25T11:59:19.259Z,144.87
2018-12-25T12:01:48.333Z,138.30
2018-12-25T12:04:17.427Z,154.67
2018-12-25T12:06:46.495Z,166.17
2018-12-25T12:09:15.563Z,137.50
2018-12-25T12:11:44.666Z,138.23
2018-12-25T12:14:13.749Z,126.40
2018-12-25T12:16:44.697Z,126.90
2018-12-25T12:19:14.129Z,115.20
2018-12-25T12:21:43.197Z,119.63
2018-12-25T12:24:12.268Z,139.27
2018-12-25T12:26:41.364Z,139.03
2018-12-25T12:29:10.436Z,117.27
2018-12-25T12:31:39.500Z,124.27
2018-12-25T12:34:08.627Z,104.17
2018-12-25T12:36:37.695Z,119.87
2018-12-25T12:39:06.825Z,102.70
2018-12-25T12:41:35.853Z,105.60
2018-12-25T12:44:04.917Z,85.43
2018-12-25T12:46:33.983Z,90.07
2018-12-25T12:49:03.067Z,90.97
2018-12-25T12:51:32.133Z,94.13
2018-12-25T12:54:01.195Z,90.33
2018-12-25T12:56:30.321Z,73.33
2018-12-25T12:58:59.388Z,76.70
2018-12-25T13:01:28.456Z,65.27
2018-12-25T13:03:57.550Z,62.27
2018-12-25T13:06:26.610Z,58.33
2018-12-25T13:08:55.683Z,49.77
2018-12-25T13:11:24.775Z,49.67
2018-12-25T13:13:53.857Z,53.60
2018-12-25T13:16:22.928Z,51.97
2018-12-25T13:18:52.036Z,55.67
2018-12-25T13:21:21.087Z,50.73
2018-12-25T13:23:50.143Z,42.00
2018-12-25T13:26:19.223Z,41.80
2018-12-25T13:28:48.280Z,33.77
2018-12-25T13:31:17.375Z,25.93
2018-12-25T13:33:46.462Z,27.97
2018-12-25T13:36:17.986Z,20.63
2018-12-25T13:38:47.850Z,30.57
2018-12-25T13:41:17.547Z,26.00
2018-12-25T13:43:47.382Z,26.43
2018-12-25T13:46:17.045Z,30.97
2018-12-25T13:48:46.118Z,30.60
2018-12-25T13:51:15.162Z,49.87
2018-12-25T13:53:44.251Z,47.63
2018-12-25T13:56:13.314Z,38.83
2018-12-25T13:58:42.376Z,36.97
2018-12-25T14:01:11.498Z,34.03
2018-12-25T14:03:40.552Z,38.63
2018-12-25T14:06:09.611Z,42.77
2018-12-25T14:08:38.700Z,32.50
2018-12-25T14:11:07.762Z,52.73
2018-12-25T14:13:36.823Z,39.97
2018-12-25T14:16:05.923Z,33.00
2018-12-25T14:18:34.993Z,36.63
2018-12-25T14:21:04.058Z,39.73
2018-12-25T14:23:33.240Z,42.10
2018-12-25T14:26:02.314Z,45.77
2018-12-25T14:28:31.372Z,60.43
2018-12-25T14:31:00.465Z,112.77
2018-12-25T14:33:29.561Z,69.87
2018-12-25T14:35:58.623Z,71.00
2018-12-25T14:38:27.712Z,104.33
2018-12-25T14:40:56.790Z,144.50
2018-12-25T14:43:25.874Z,85.07
2018-12-25T14:45:55.020Z,141.03
2018-12-25T14:48:24.083Z,98.97
2018-12-25T14:50:53.143Z,55.20
2018-12-25T14:53:22.223Z,54.43
2018-12-25T14:55:51.279Z,54.13
2018-12-25T14:58:20.345Z,47.90
2018-12-25T15:00:49.528Z,43.40
2018-12-25T15:03:18.521Z,36.97
2018-12-25T15:05:47.574Z,41.87
2018-12-25T15:08:16.943Z,39.23
2018-12-25T15:10:46.003Z,37.93
2018-12-25T15:13:15.066Z,32.33
2018-12-25T15:15:44.150Z,29.37
2018-12-25T15:18:13.207Z,33.33
2018-12-25T15:20:42.263Z,29.43
2018-12-25T15:23:11.337Z,31.90
2018-12-25T15:25:40.391Z,35.17
2018-12-25T15:28:09.455Z,35.73
2018-12-25T15:30:38.563Z,37.43
2018-12-25T15:33:07.629Z,34.90
2018-12-25T15:35:36.695Z,39.53
2018-12-25T15:38:05.786Z,32.10
2018-12-25T15:40:34.852Z,36.47
2018-12-25T15:43:03.940Z,53.00
2018-12-25T15:45:33.034Z,45.97
2018-12-25T15:48:02.093Z,51.33
2018-12-25T15:50:31.173Z,52.87
2018-12-25T15:53:00.302Z,55.20
2018-12-25T15:55:29.371Z,49.73
2018-12-25T15:57:59.476Z,39.40
2018-12-25T16:00:28.564Z,51.13
2018-12-25T16:02:57.648Z,44.87
2018-12-25T16:05:26.727Z,48.00
2018-12-25T16:07:55.815Z,49.87
2018-12-25T16:10:24.881Z,59.70
2018-12-25T16:12:53.935Z,64.53
2018-12-25T16:15:23.166Z,59.20
2018-12-25T16:17:52.227Z,48.57
2018-12-25T16:20:21.290Z,42.23
2018-12-25T16:22:52.364Z,62.27
2018-12-25T16:25:19.414Z,50.90
2018-12-25T16:27:48.475Z,95.90
2018-12-25T16:30:17.565Z,47.83
2018-12-25T16:32:46.629Z,51.57
2018-12-25T16:35:15.683Z,54.33
2018-12-25T16:37:44.796Z,56.07
2018-12-25T16:40:13.856Z,52.77
2018-12-25T16:42:42.913Z,57.17
2018-12-25T16:45:11.997Z,42.10
2018-12-25T16:47:41.056Z,37.90
2018-12-25T16:50:10.115Z,32.90
2018-12-25T16:52:39.211Z,38.97
2018-12-25T16:55:08.272Z,32.53
2018-12-25T16:57:37.347Z,32.20
2018-12-25T17:00:06.433Z,31.97
2018-12-25T17:02:35.486Z,32.93
2018-12-25T17:05:04.536Z,33.63
2018-12-25T17:07:33.620Z,39.53
2018-12-25T17:10:02.690Z,37.80
2018-12-25T17:12:31.761Z,41.97
2018-12-25T17:15:00.853Z,46.07
2018-12-25T17:17:29.909Z,34.87
2018-12-25T17:19:58.957Z,31.17
2018-12-25T17:22:28.079Z,29.67
2018-12-25T17:24:57.134Z,32.37
2018-12-25T17:27:26.208Z,34.23
2018-12-25T17:29:55.302Z,29.53
2018-12-25T17:32:24.356Z,25.17
2018-12-25T17:34:53.423Z,32.00
2018-12-25T17:37:22.520Z,35.77
2018-12-25T17:39:51.596Z,44.53
2018-12-25T17:42:20.656Z,34.87
2018-12-25T17:44:49.783Z,39.10
2018-12-25T17:47:18.847Z,37.80
2018-12-25T17:49:47.911Z,32.07
2018-12-25T17:52:17.057Z,30.60
2018-12-25T17:54:46.103Z,37.03
2018-12-25T17:57:20.932Z,37.57
2018-12-25T17:59:49.977Z,41.97
2018-12-25T18:02:19.028Z,50.77
2018-12-25T18:04:48.130Z,70.40
2018-12-25T18:07:17.189Z,66.63
2018-12-25T18:09:46.250Z,63.03
2018-12-25T18:12:15.346Z,69.47
2018-12-25T18:14:44.420Z,89.50
2018-12-25T18:17:18.787Z,79.87
2018-12-25T18:19:44.582Z,58.30
2018-12-25T18:22:13.654Z,62.30
2018-12-25T18:24:42.718Z,44.10
2018-12-25T18:27:12.062Z,47.53
2018-12-25T18:29:41.132Z,38.20
2018-12-25T18:32:10.210Z,43.17
2018-12-25T18:34:39.305Z,35.57
2018-12-25T18:37:08.378Z,32.87
2018-12-25T18:39:37.444Z,42.93
2018-12-25T18:42:06.525Z,33.67
2018-12-25T18:44:35.576Z,43.20
2018-12-25T18:47:08.173Z,32.33
2018-12-25T18:49:37.237Z,29.77
2018-12-25T18:52:06.302Z,27.40
2018-12-25T18:54:35.409Z,30.60
2018-12-25T18:57:04.491Z,31.27
2018-12-25T18:59:33.548Z,33.67
2018-12-25T19:02:02.646Z,28.10
2018-12-25T19:04:31.744Z,24.70
2018-12-25T19:07:00.796Z,31.07
2018-12-25T19:09:29.916Z,35.63
2018-12-25T19:11:58.972Z,30.87
2018-12-25T19:14:28.045Z,32.57
2018-12-25T19:16:57.138Z,27.40
2018-12-25T19:19:26.212Z,30.70
2018-12-25T19:21:55.280Z,33.27
2018-12-25T19:24:24.391Z,32.87
2018-12-25T19:26:53.450Z,28.23
2018-12-25T19:29:22.514Z,35.97
2018-12-25T19:31:51.614Z,38.10
2018-12-25T19:34:20.693Z,28.67
2018-12-25T19:36:55.703Z,39.80
2018-12-25T19:39:24.756Z,29.23
2018-12-25T19:41:53.810Z,33.00
2018-12-25T19:44:22.892Z,28.07
2018-12-25T19:46:51.948Z,27.03
2018-12-25T19:49:21.001Z,23.33
2018-12-25T19:51:50.104Z,20.20
2018-12-25T19:54:19.173Z,28.63
2018-12-25T19:56:48.233Z,26.03
2018-12-25T19:59:17.321Z,24.63
2018-12-25T20:01:46.367Z,26.30
2018-12-25T20:04:18.990Z,19.77
2018-12-25T20:06:48.051Z,22.13
2018-12-25T20:09:19.028Z,23.70
2018-12-25T20:11:53.809Z,23.17
2018-12-25T20:14:27.521Z,29.43
2018-12-25T20:17:07.181Z,29.80
2018-12-25T20:19:38.899Z,34.10
2018-12-25T20:22:12.508Z,28.70
2018-12-25T20:24:52.666Z,31.03
2018-12-25T20:27:25.854Z,23.97
2018-12-25T20:29:58.498Z,25.40
2018-12-25T20:32:30.425Z,26.20
2018-12-25T20:35:08.313Z,32.13
2018-12-25T20:37:49.088Z,28.73
2018-12-25T20:40:18.188Z,23.73
2018-12-25T20:42:50.412Z,28.80
2018-12-25T20:45:29.326Z,25.17
2018-12-25T20:48:16.662Z,22.57
2018-12-25T20:50:52.295Z,27.77
2018-12-25T20:53:25.185Z,30.00
2018-12-25T20:56:08.864Z,38.97
2018-12-25T20:58:46.587Z,28.40
2018-12-25T21:01:26.476Z,34.03
2018-12-25T21:03:56.484Z,34.90
2018-12-25T21:06:31.415Z,26.17
2018-12-25T21:09:10.056Z,20.40
2018-12-25T21:11:42.058Z,19.73
2018-12-25T21:14:16.197Z,22.97
2018-12-25T21:16:51.860Z,21.90
2018-12-25T21:19:37.258Z,18.40
2018-12-25T21:22:08.114Z,16.23
2018-12-25T21:24:49.019Z,17.87
2018-12-25T21:27:39.383Z,22.30
2018-12-25T21:30:08.670Z,20.83
2018-12-25T21:32:37.748Z,12.23
2018-12-25T21:35:08.642Z,18.03
2018-12-25T21:37:37.723Z,22.47
2018-12-25T21:40:06.771Z,17.87
2018-12-25T21:42:35.814Z,16.93
2018-12-25T21:45:04.904Z,16.00
2018-12-25T21:47:33.968Z,13.00
2018-12-25T21:50:03.035Z,10.13
2018-12-25T21:52:32.140Z,23.23
2018-12-25T21:55:01.195Z,19.67
2018-12-25T21:57:30.259Z,14.83
2018-12-25T21:59:59.388Z,15.57
2018-12-25T22:02:28.497Z,21.13
2018-12-25T22:04:57.559Z,17.00
2018-12-25T22:10:25.575Z,18.53
2018-12-25T22:12:54.657Z,21.13
2018-12-25T22:15:23.710Z,18.67
2018-12-25T22:17:52.775Z,15.93
2018-12-25T22:20:21.848Z,14.00
2018-12-25T22:22:50.903Z,15.93
2018-12-25T22:25:26.899Z,14.10
2018-12-25T22:27:49.063Z,15.27
2018-12-25T22:30:18.218Z,13.97
2018-12-25T22:32:47.270Z,16.70
2018-12-25T22:35:16.365Z,16.13
2018-12-25T22:37:45.421Z,14.33
2018-12-25T22:40:14.475Z,13.93
2018-12-25T22:42:43.547Z,8.97
2018-12-25T22:45:12.597Z,10.67
2018-12-25T22:47:41.636Z,14.17
2018-12-25T22:50:10.808Z,14.47
2018-12-25T22:52:39.866Z,13.60
2018-12-25T22:55:08.912Z,18.70
2018-12-25T22:57:53.081Z,14.23
2018-12-25T23:00:22.129Z,11.73
2018-12-25T23:02:51.187Z,13.53
2018-12-25T23:05:20.681Z,29.97
2018-12-25T23:07:49.729Z,18.33
2018-12-25T23:10:18.783Z,15.77
2018-12-25T23:12:47.893Z,22.83
2018-12-25T23:15:16.945Z,15.07
2018-12-25T23:17:46.003Z,14.77
2018-12-25T23:20:15.164Z,14.00
2018-12-25T23:22:44.214Z,17.33
2018-12-25T23:25:13.275Z,12.67
2018-12-25T23:27:42.371Z,14.63
2018-12-25T23:30:11.407Z,19.60
2018-12-25T23:32:40.468Z,10.47
2018-12-25T23:35:09.701Z,16.90
2018-12-25T23:37:38.614Z,15.17
2018-12-25T23:40:07.670Z,15.10
2018-12-25T23:42:36.747Z,17.97
2018-12-25T23:45:05.789Z,18.63
2018-12-25T23:47:34.842Z,26.23
2018-12-25T23:50:03.963Z,10.57
2018-12-25T23:52:33.074Z,14.97
2018-12-25T23:55:02.121Z,15.37
2018-12-25T23:57:31.218Z,13.73
